• Join FlightAware (Why Join?)
  • Login
  • US Flag 
07:39AM EDT


 

Airport Tracker/Info


-or-


 

Live Flight TrackerFlight Track Log ✈ SKW5162 ✈ 18-Jul-2013 ✈ KIAD - CYYZ

Flight Track Log - Related Links

Times and Time Zones

All times are in EDT time to prevent confusion due to time zone crossing. See the SKW5162 flight status page for this flight to view local times or setup timezone preferences in your user account.

Time Position Orientation Groundspeed Altitude Reporting Facility
EDT Latitude Longitude Course Direction KTS MPH feet Rate Location/Type
10:53PM 38.9667 -77.5333 North 185 213 2,300  Level Potomac TRACON
10:54PM 39.0167 -77.5667 333° Northwest 252 290 4,300 2,280 Climbing Potomac TRACON
10:55PM 39.2890 -77.4500 North  Level FlightAware Approximate
10:56PM 39.4076 -77.4500 North  Level FlightAware Approximate
10:56PM 39.1681 -77.5753 357° North 289 333 9,200  Level Washington Center
10:57PM 39.5261 -77.4500 North  Level FlightAware Approximate
10:57PM 39.2489 -77.5989 347° North 289 333 11,600  Level Washington Center
10:58PM 39.6446 -77.4500 North  Level FlightAware Approximate
10:58PM 39.3214 -77.6331 340° North 305 351 13,000  Level Washington Center
10:59PM 39.7681 -77.4500 North  Level FlightAware Approximate
10:59PM 39.4167 -77.6656 345° North 333 383 14,400  Level Washington Center
11:00PM 39.5053 -77.6008 29° Northeast 329 379 16,400 1,380 Climbing Washington Center
11:01PM 39.5983 -77.5117 36° Northeast 349 402 17,200 1,320 Climbing Washington Center
11:02PM 39.6531 -77.4558 38° Northeast 350 403 18,500 1,860 Climbing New York Center
11:03PM 39.7658 -77.4531 North 385 443 20,200 1,500 Climbing New York Center
11:04PM 39.8764 -77.4500 North 385 443 21,600 1,380 Climbing New York Center
11:05PM 39.9933 -77.4503 360° North 404 465 23,100 1,380 Climbing New York Center
11:06PM 40.1122 -77.4481 North 411 473 24,400 1,320 Climbing New York Center
11:07PM 40.2142 -77.4878 343° North 420 483 25,800 1,200 Climbing New York Center
11:08PM 40.3264 -77.5314 343° North 425 489 26,900 1,200 Climbing New York Center
11:10PM 40.5542 -77.6261 342° North 428 493 29,400 1,200 Climbing Cleveland Center
11:11PM 40.6681 -77.6731 343° North 428 493 30,600 1,080 Climbing Cleveland Center
11:12PM 40.7819 -77.7231 342° North 428 493 31,600 660 Climbing Cleveland Center
11:13PM 40.8978 -77.7700 343° North 428 493 32,000 180 Climbing Cleveland Center
11:14PM 41.0303 -77.8250 343° North 435 501 32,000  Level Cleveland Center
11:15PM 41.1525 -77.8750 343° North 445 512 32,000  Level Cleveland Center
11:16PM 41.2725 -77.9253 343° North 445 512 32,000  Level Cleveland Center
11:17PM 41.3947 -77.9783 342° North 450 518 32,000  Level Cleveland Center
11:18PM 41.5167 -78.0289 343° North 450 518 32,000  Level Cleveland Center
11:19PM 41.6389 -78.0825 342° North 450 518 32,000  Level Cleveland Center
11:20PM 41.7608 -78.1333 343° North 450 518 32,000  Level Cleveland Center
11:21PM 41.8850 -78.1872 342° North 457 526 32,000  Level Cleveland Center
11:22PM 42.0069 -78.2414 342° North 462 532 32,000  Level Cleveland Center
11:23PM 42.1186 -78.2906 342° North 469 540 32,000  Level Cleveland Center
11:24PM 42.2406 -78.3450 342° North 469 540 32,000  Level Cleveland Center
11:25PM 42.3625 -78.3997 342° North 469 540 32,000 -480 Level Cleveland Center
11:26PM 42.4844 -78.4519 342° North 464 534 31,100 -960 Descending Cleveland Center
11:27PM 42.6103 -78.5069 342° North 469 540 30,100 -1,020 Descending Cleveland Center
11:28PM 42.7281 -78.5594 342° North 464 534 29,100 -1,200 Descending Cleveland Center
11:29PM 42.8289 -78.6017 343° North 422 486 27,700 -1,680 Descending Cleveland Center
11:30PM 42.9256 -78.6494 340° North 388 447 25,800 -1,860 Descending Cleveland Center
11:31PM 42.9856 -78.7497 309° West 346 398 24,000 -1,860 Descending Cleveland Center
11:32PM 43.0411 -78.8506 307° West 331 381 22,100 -1,800 Descending Cleveland Center
11:33PM 43.0906 -78.9458 305° West 325 374 20,400 -1,620 Descending Cleveland Center
11:34PM 43.1419 -79.0439 306° West 320 368 18,900 -1,620 Descending Cleveland Center
11:35PM 43.2000 -79.1333 312° West 310 357 17,100 -1,500 Descending Toronto Center
11:36PM 43.2333 -79.2167 299° West 300 345 15,800 -1,380 Descending Toronto Center
11:37PM 43.2833 -79.3167 305° West 290 334 14,400 -1,380 Descending Toronto Center
11:38PM 43.3500 -79.3833 324° Northwest 290 334 13,100 -1,320 Descending Toronto Center
11:39PM 43.4167 -79.4333 331° Northwest 290 334 11,800 -1,380 Descending Toronto Center
11:40PM 43.5000 -79.4667 344° North 270 311 10,400 -1,380 Descending Toronto Center
11:41PM 43.5667 -79.4667 360° North 260 299 9,100 -1,800 Descending Toronto Center
11:42PM 43.6333 -79.4333 20° North 260 299 6,800 -2,280 Descending Toronto Center
11:43PM 43.6833 -79.3833 36° Northeast 260 299 4,600 -1,560 Descending Toronto Center
11:44PM 43.7333 -79.3500 26° Northeast 210 242 3,700 -900 Descending Toronto Center